Time;durP1;ratioP1;P1;durP2;ratioP2;P2;SDS_P1;SDS_P2;PMS_P1;PMS_P2;Temp;Humidity;BMP_temperature;BMP_pressure;BME280_temperature;BME280_humidity;BME280_pressure;Samples;Min_cycle;Max_cycle;Signal;HPM_P1;HPM_P2
2022/06/07 00:02:05;;;;;;;14.52;7.53;;;11.00;99.90;;;;;;5023541;28;20036;-74
2022/06/07 00:04:32;;;;;;;11.98;7.10;;;11.00;99.90;;;;;;5024343;28;20029;-73
2022/06/07 00:06:57;;;;;;;16.13;7.10;;;11.00;99.90;;;;;;5034429;28;20033;-74
2022/06/07 00:09:23;;;;;;;12.15;7.57;;;11.00;99.90;;;;;;5030904;28;20067;-73
2022/06/07 00:11:49;;;;;;;12.10;6.93;;;11.00;99.90;;;;;;5032702;28;20034;-74
2022/06/07 00:14:15;;;;;;;13.65;8.68;;;11.00;99.90;;;;;;5024028;28;20082;-74
2022/06/07 00:16:41;;;;;;;17.70;7.18;;;11.00;99.90;;;;;;5028432;28;20030;-73
2022/06/07 00:19:07;;;;;;;10.90;6.57;;;11.10;99.90;;;;;;5026024;28;20045;-74
2022/06/07 00:21:32;;;;;;;12.43;7.07;;;11.10;99.90;;;;;;5027425;28;20109;-73
2022/06/07 00:24:00;;;;;;;21.80;10.32;;;11.20;99.90;;;;;;5032788;28;20495;-74
2022/06/07 00:26:31;;;;;;;25.25;12.93;;;11.30;99.90;;;;;;5024909;28;20028;-74
2022/06/07 00:28:57;;;;;;;20.48;11.10;;;11.40;99.90;;;;;;5025922;28;20529;-73
2022/06/07 00:31:23;;;;;;;20.95;10.02;;;11.40;99.90;;;;;;5021980;28;20030;-73
2022/06/07 00:33:48;;;;;;;16.65;9.10;;;11.50;99.90;;;;;;5024394;28;20045;-73
2022/06/07 00:36:15;;;;;;;17.48;10.60;;;11.50;99.90;;;;;;5014012;28;20155;-74
2022/06/07 00:38:43;;;;;;;15.07;9.18;;;11.50;99.90;;;;;;5033513;28;20033;-74
2022/06/07 00:41:12;;;;;;;16.33;8.18;;;11.50;99.90;;;;;;5018358;28;20033;-76
2022/06/07 00:44:01;;;;;;;12.27;9.02;;;11.60;99.90;;;;;;5016096;28;20033;-75
2022/06/07 00:46:27;;;;;;;16.77;9.88;;;11.60;99.90;;;;;;5024626;28;20025;-75
2022/06/07 00:48:54;;;;;;;10.75;7.80;;;11.60;99.90;;;;;;5028237;28;20472;-76
2022/06/07 00:51:19;;;;;;;14.40;9.00;;;11.70;99.90;;;;;;5023601;28;20036;-76
2022/06/07 00:53:45;;;;;;;12.73;8.63;;;11.70;99.90;;;;;;5028578;28;20504;-75
2022/06/07 00:56:11;;;;;;;19.65;10.95;;;11.70;99.90;;;;;;5030523;28;20571;-75
2022/06/07 00:58:39;;;;;;;22.25;11.68;;;11.70;99.90;;;;;;5029198;28;20115;-76
2022/06/07 01:01:05;;;;;;;17.42;8.90;;;11.70;99.90;;;;;;5019356;28;20072;-76
2022/06/07 01:03:31;;;;;;;14.23;8.95;;;11.60;99.90;;;;;;5020209;28;20022;-75
2022/06/07 01:10:43;;;;;;;13.00;8.48;;;11.50;99.90;;;;;;5021176;28;20096;-76
2022/06/07 01:11:26;;;;;;;14.13;8.23;;;11.50;99.90;;;;;;5031999;28;20120;-73
2022/06/07 01:13:52;;;;;;;13.75;7.88;;;11.50;99.90;;;;;;5027255;28;20042;-75
2022/06/07 01:16:18;;;;;;;17.65;9.10;;;11.50;99.90;;;;;;5024617;28;20029;-76
2022/06/07 01:18:43;;;;;;;13.05;8.40;;;11.50;99.90;;;;;;5018884;28;20087;-75
2022/06/07 01:21:19;;;;;;;13.52;8.73;;;11.60;99.90;;;;;;5017612;28;20495;-76
2022/06/07 01:23:46;;;;;;;8.57;6.50;;;11.60;99.90;;;;;;5030130;28;20023;-75
2022/06/07 01:26:13;;;;;;;11.55;6.75;;;11.60;99.90;;;;;;5022200;28;20051;-76
2022/06/07 01:28:39;;;;;;;10.68;7.00;;;11.70;99.90;;;;;;5034485;28;20523;-76
2022/06/07 01:31:05;;;;;;;8.00;6.30;;;11.70;99.90;;;;;;5033488;28;20044;-75
2022/06/07 01:33:31;;;;;;;10.43;6.65;;;11.70;99.90;;;;;;5036558;28;20060;-76
2022/06/07 01:36:10;;;;;;;9.20;6.30;;;11.70;99.90;;;;;;5033460;28;20543;-76
2022/06/07 01:38:37;;;;;;;12.70;7.03;;;11.80;99.90;;;;;;5016973;28;20061;-76
2022/06/07 01:43:48;;;;;;;10.90;6.32;;;11.80;99.90;;;;;;5038361;28;20110;-76
2022/06/07 01:46:14;;;;;;;13.93;7.00;;;11.90;99.90;;;;;;5028683;28;20439;-76
2022/06/07 01:48:40;;;;;;;13.60;6.90;;;11.90;99.90;;;;;;5019734;28;20025;-75
2022/06/07 01:51:08;;;;;;;11.82;7.20;;;11.90;99.90;;;;;;5025524;28;20361;-76
2022/06/07 01:53:34;;;;;;;12.35;7.70;;;11.90;99.90;;;;;;5033539;28;20280;-76
2022/06/07 01:56:11;;;;;;;8.38;7.22;;;11.90;99.90;;;;;;5024661;28;20033;-75
2022/06/07 01:58:38;;;;;;;11.77;7.78;;;11.90;99.90;;;;;;5025450;28;20036;-75
2022/06/07 02:01:04;;;;;;;12.75;7.28;;;11.90;99.90;;;;;;5036990;28;20116;-76
2022/06/07 02:03:30;;;;;;;14.73;7.05;;;11.80;99.90;;;;;;5038306;28;20507;-75
2022/06/07 02:06:02;;;;;;;14.80;7.30;;;11.80;99.90;;;;;;5027652;28;20026;-75
2022/06/07 02:08:28;;;;;;;12.00;7.10;;;11.90;99.90;;;;;;5015277;28;20146;-76
2022/06/07 02:10:54;;;;;;;11.77;6.93;;;11.90;99.90;;;;;;4996633;28;20029;-76
2022/06/07 02:13:21;;;;;;;13.15;7.20;;;11.90;99.90;;;;;;5022454;28;20488;-76
2022/06/07 02:15:47;;;;;;;8.68;6.78;;;12.00;99.90;;;;;;5012713;28;20033;-75
2022/06/07 02:18:14;;;;;;;13.68;7.55;;;12.00;99.90;;;;;;5017124;28;20033;-76
2022/06/07 02:20:41;;;;;;;11.18;6.90;;;12.00;99.90;;;;;;5011875;28;20127;-76
2022/06/07 02:23:08;;;;;;;13.00;7.72;;;12.00;99.90;;;;;;5019721;28;20033;-76
2022/06/07 02:25:41;;;;;;;10.15;7.57;;;12.00;99.90;;;;;;4992174;28;20174;-75
2022/06/07 02:28:12;;;;;;;14.65;6.95;;;12.00;99.90;;;;;;5013616;28;20072;-76
2022/06/07 02:30:40;;;;;;;12.05;6.70;;;12.00;99.90;;;;;;5016838;28;20025;-75
2022/06/07 02:33:07;;;;;;;11.13;7.10;;;12.00;99.90;;;;;;5027059;28;20567;-76
2022/06/07 02:35:33;;;;;;;13.82;7.72;;;12.00;99.90;;;;;;5017542;28;20052;-77
2022/06/07 02:37:59;;;;;;;14.65;7.40;;;12.00;99.90;;;;;;5011385;28;20065;-76
2022/06/07 02:40:25;;;;;;;11.20;6.72;;;12.00;99.90;;;;;;5028586;28;20072;-76
2022/06/07 02:42:50;;;;;;;12.52;8.32;;;12.10;99.90;;;;;;5025237;28;20209;-76
2022/06/07 02:45:16;;;;;;;12.85;6.63;;;12.10;99.90;;;;;;5021177;28;20029;-76
2022/06/07 02:47:43;;;;;;;12.50;7.88;;;12.00;99.90;;;;;;5011941;28;20130;-76
2022/06/07 02:50:10;;;;;;;10.70;7.43;;;12.00;99.90;;;;;;5031338;28;20051;-76
2022/06/07 02:52:35;;;;;;;9.70;7.18;;;12.00;99.90;;;;;;5019201;28;20404;-76
2022/06/07 02:55:02;;;;;;;11.10;7.07;;;12.00;99.90;;;;;;5017851;28;20509;-76
2022/06/07 02:57:27;;;;;;;10.30;7.45;;;12.00;99.90;;;;;;5010033;28;20037;-76
2022/06/07 02:59:53;;;;;;;17.13;7.30;;;12.00;99.90;;;;;;5021993;28;20029;-77
2022/06/07 03:02:19;;;;;;;11.32;7.47;;;12.00;99.90;;;;;;5015475;28;20650;-77
2022/06/07 03:04:44;;;;;;;16.92;8.10;;;12.00;99.90;;;;;;5000328;28;20104;-76
2022/06/07 03:07:10;;;;;;;13.20;8.07;;;12.00;99.90;;;;;;5017417;28;20029;-75
2022/06/07 03:09:36;;;;;;;13.70;7.88;;;12.00;99.90;;;;;;5006422;28;20087;-75
2022/06/07 03:12:02;;;;;;;10.80;6.88;;;12.00;99.90;;;;;;5005151;28;20125;-76
2022/06/07 03:14:28;;;;;;;12.80;7.82;;;12.00;99.90;;;;;;5004478;28;20037;-75
2022/06/07 03:16:53;;;;;;;9.77;7.47;;;12.00;99.90;;;;;;5009352;28;20082;-75
2022/06/07 03:19:19;;;;;;;11.65;7.32;;;12.00;99.90;;;;;;5016200;28;20132;-76
2022/06/07 03:21:45;;;;;;;13.00;8.23;;;12.00;99.90;;;;;;5026284;28;20186;-76
2022/06/07 03:24:11;;;;;;;16.58;8.73;;;12.00;99.90;;;;;;5017665;28;20025;-77
2022/06/07 03:26:36;;;;;;;13.68;8.65;;;11.90;99.90;;;;;;5003325;28;20299;-76
2022/06/07 03:29:03;;;;;;;17.20;9.77;;;11.90;99.90;;;;;;5023454;28;20254;-76
2022/06/07 03:31:28;;;;;;;16.75;9.35;;;11.90;99.90;;;;;;5024950;28;20037;-76
2022/06/07 03:33:54;;;;;;;17.38;9.18;;;11.80;99.90;;;;;;5012767;28;20061;-76
2022/06/07 03:36:27;;;;;;;13.63;9.07;;;11.80;99.90;;;;;;5026120;28;20118;-76
2022/06/07 03:38:55;;;;;;;13.77;9.50;;;11.90;99.90;;;;;;5021251;28;20363;-76
2022/06/07 03:41:23;;;;;;;13.20;9.15;;;11.80;99.90;;;;;;5035580;28;20029;-75
2022/06/07 03:43:50;;;;;;;14.80;9.77;;;11.80;99.90;;;;;;5028919;28;20037;-76
2022/06/07 03:46:22;;;;;;;15.93;9.30;;;11.90;99.90;;;;;;5024417;28;20033;-76
2022/06/07 03:48:47;;;;;;;16.42;9.27;;;11.90;99.90;;;;;;5022660;28;20078;-75
2022/06/07 03:51:16;;;;;;;17.45;9.05;;;11.90;99.90;;;;;;5021854;28;20026;-76
2022/06/07 03:53:43;;;;;;;12.43;9.00;;;11.90;99.90;;;;;;5004619;28;20498;-75
2022/06/07 03:56:09;;;;;;;16.05;8.98;;;11.90;99.90;;;;;;5027464;28;20091;-75
2022/06/07 03:58:37;;;;;;;12.82;8.43;;;11.90;99.90;;;;;;5010803;28;20033;-74
2022/06/07 04:01:03;;;;;;;13.68;9.18;;;12.00;99.90;;;;;;5027693;28;20524;-76
2022/06/07 04:03:29;;;;;;;18.85;9.20;;;12.00;99.90;;;;;;5017561;28;20116;-75
2022/06/07 04:05:56;;;;;;;15.65;9.23;;;12.00;99.90;;;;;;5009201;28;20033;-76
2022/06/07 04:08:22;;;;;;;14.05;9.13;;;12.00;99.90;;;;;;5002332;28;20099;-76
2022/06/07 04:10:59;;;;;;;16.70;9.85;;;12.00;99.90;;;;;;5017361;28;20064;-76
2022/06/07 04:13:28;;;;;;;15.38;9.73;;;12.10;99.90;;;;;;5007564;28;20087;-76
2022/06/07 04:15:53;;;;;;;12.57;9.43;;;12.10;99.90;;;;;;5012070;28;20537;-76
2022/06/07 04:18:20;;;;;;;17.23;9.48;;;12.20;99.90;;;;;;5027887;28;20491;-76
2022/06/07 04:20:46;;;;;;;12.20;9.23;;;12.30;99.90;;;;;;5023305;28;20112;-76
2022/06/07 04:23:21;;;;;;;16.02;8.85;;;12.30;99.90;;;;;;5007639;28;20633;-76
2022/06/07 04:25:47;;;;;;;10.35;8.48;;;12.50;99.90;;;;;;5031794;28;20032;-75
2022/06/07 04:28:13;;;;;;;12.80;9.32;;;12.60;99.90;;;;;;5013596;28;20030;-75
2022/06/07 04:30:43;;;;;;;10.35;8.20;;;12.60;99.90;;;;;;5014031;28;20029;-77
2022/06/07 04:33:09;;;;;;;15.25;8.32;;;12.70;99.90;;;;;;5012399;28;20065;-76
2022/06/07 04:35:35;;;;;;;10.98;7.93;;;12.80;99.90;;;;;;5018955;28;20217;-76
2022/06/07 04:38:01;;;;;;;10.40;7.70;;;12.80;99.90;;;;;;5006649;28;20487;-76
2022/06/07 04:40:26;;;;;;;13.25;8.50;;;12.90;99.90;;;;;;4993805;28;20041;-75
2022/06/07 04:42:52;;;;;;;11.52;8.75;;;13.00;99.90;;;;;;5003521;28;20052;-76
2022/06/07 04:45:18;;;;;;;10.13;7.97;;;13.10;99.90;;;;;;5012227;28;20029;-76
2022/06/07 04:47:45;;;;;;;9.15;7.60;;;13.10;99.90;;;;;;5010557;28;20084;-76
2022/06/07 04:50:14;;;;;;;13.38;9.48;;;13.20;99.90;;;;;;5001699;28;20036;-76
2022/06/07 04:52:39;;;;;;;13.70;8.30;;;13.30;99.90;;;;;;5007173;28;20034;-76
2022/06/07 04:55:05;;;;;;;12.73;8.02;;;13.30;99.90;;;;;;5016784;28;20049;-75
2022/06/07 04:57:31;;;;;;;11.68;8.80;;;13.30;99.90;;;;;;5016515;28;20492;-76
2022/06/07 04:59:57;;;;;;;17.10;10.80;;;13.40;99.90;;;;;;4999293;28;20520;-76
2022/06/07 05:02:23;;;;;;;11.82;9.55;;;13.40;99.90;;;;;;5013312;28;20043;-76
2022/06/07 05:04:49;;;;;;;16.23;9.50;;;13.50;99.90;;;;;;5019512;28;20042;-76
2022/06/07 05:07:15;;;;;;;13.25;10.15;;;13.60;99.90;;;;;;5012387;28;20029;-75
2022/06/07 05:09:41;;;;;;;12.65;9.30;;;13.60;99.90;;;;;;5012337;28;20030;-76
2022/06/07 05:12:08;;;;;;;11.43;8.73;;;13.60;99.90;;;;;;5016438;28;20033;-76
2022/06/07 05:14:35;;;;;;;14.45;9.43;;;13.70;99.90;;;;;;4990675;28;20026;-75
2022/06/07 05:17:01;;;;;;;14.02;9.05;;;13.60;99.90;;;;;;5017122;28;20646;-75
2022/06/07 05:19:29;;;;;;;16.15;9.90;;;13.70;99.90;;;;;;5020236;28;20148;-76
2022/06/07 05:21:55;;;;;;;13.98;10.20;;;13.70;99.90;;;;;;5012676;28;20030;-75
2022/06/07 05:24:21;;;;;;;14.98;10.45;;;13.70;99.90;;;;;;5009288;28;20097;-76
2022/06/07 05:26:56;;;;;;;16.30;10.32;;;13.70;99.90;;;;;;5035160;28;20120;-76
2022/06/07 05:29:48;;;;;;;13.38;9.80;;;13.60;99.90;;;;;;5012750;28;20044;-75
2022/06/07 05:32:15;;;;;;;14.65;9.68;;;13.70;99.90;;;;;;5004293;28;20026;-76
2022/06/07 05:34:41;;;;;;;19.60;11.95;;;13.70;99.90;;;;;;4988370;28;20537;-75
2022/06/07 05:37:06;;;;;;;14.32;9.88;;;13.70;99.90;;;;;;5010639;28;20029;-76
2022/06/07 05:39:32;;;;;;;11.40;8.18;;;13.70;99.90;;;;;;4997942;28;20037;-75
2022/06/07 05:42:00;;;;;;;15.40;9.70;;;13.70;99.90;;;;;;5000139;28;20877;-75
2022/06/07 05:44:27;;;;;;;16.83;9.43;;;13.70;99.90;;;;;;5006320;28;20022;-74
2022/06/07 05:46:53;;;;;;;11.82;8.07;;;13.80;99.90;;;;;;5014502;28;20029;-75
2022/06/07 05:49:19;;;;;;;14.73;9.00;;;13.80;99.90;;;;;;5013047;28;20033;-76
2022/06/07 05:51:46;;;;;;;12.70;8.23;;;13.90;99.90;;;;;;5023805;28;20021;-76
2022/06/07 05:54:13;;;;;;;13.35;10.07;;;14.00;99.90;;;;;;5014026;28;20068;-74
2022/06/07 05:56:39;;;;;;;11.77;8.75;;;14.00;99.90;;;;;;5010188;28;20022;-75
2022/06/07 05:59:05;;;;;;;12.45;9.15;;;14.00;99.90;;;;;;5008515;28;20037;-75
2022/06/07 06:01:32;;;;;;;10.48;8.20;;;14.00;99.90;;;;;;5002746;28;20030;-75
2022/06/07 06:03:58;;;;;;;17.48;11.73;;;14.00;99.90;;;;;;5002835;28;20025;-75
2022/06/07 06:06:25;;;;;;;16.73;11.75;;;14.10;99.90;;;;;;4995325;28;20462;-75
2022/06/07 06:11:36;;;;;;;16.17;9.27;;;14.00;99.90;;;;;;5002412;28;20111;-75
2022/06/07 06:14:02;;;;;;;17.23;10.85;;;14.00;99.90;;;;;;5000845;28;20099;-74
2022/06/07 06:16:28;;;;;;;17.70;11.35;;;14.00;99.90;;;;;;5010875;28;20118;-76
2022/06/07 06:18:57;;;;;;;14.90;10.88;;;14.10;99.90;;;;;;4989864;28;20402;-75
2022/06/07 06:21:26;;;;;;;17.05;10.77;;;14.20;99.90;;;;;;4975699;28;20468;-75
2022/06/07 06:23:52;;;;;;;17.10;11.27;;;14.20;99.90;;;;;;5001394;28;20048;-76
2022/06/07 06:26:20;;;;;;;17.92;11.63;;;14.20;99.90;;;;;;5008382;28;20045;-75
2022/06/07 06:28:46;;;;;;;16.75;11.50;;;14.30;99.90;;;;;;5008014;28;20738;-75
2022/06/07 06:31:13;;;;;;;21.15;12.32;;;14.40;99.90;;;;;;5007322;28;20500;-75
2022/06/07 06:33:39;;;;;;;19.58;12.32;;;14.50;99.90;;;;;;5002518;28;20439;-75
2022/06/07 06:36:07;;;;;;;17.98;11.77;;;14.50;99.90;;;;;;5000416;28;20080;-75
2022/06/07 06:38:34;;;;;;;18.73;12.20;;;14.50;99.90;;;;;;5005644;28;20067;-74
2022/06/07 06:41:26;;;;;;;20.92;13.40;;;14.70;99.90;;;;;;4991935;28;20057;-75
2022/06/07 06:43:56;;;;;;;21.45;13.55;;;14.70;99.90;;;;;;5007436;28;20520;-73
2022/06/07 06:46:27;;;;;;;17.27;11.30;;;14.70;99.90;;;;;;5004868;28;20037;-74
2022/06/07 06:48:54;;;;;;;22.03;12.53;;;14.70;99.90;;;;;;5005832;28;20034;-73
2022/06/07 06:51:23;;;;;;;17.58;12.27;;;14.60;99.90;;;;;;5010806;28;20026;-74
2022/06/07 06:53:49;;;;;;;21.20;13.68;;;14.70;99.90;;;;;;5009963;28;20105;-74
2022/06/07 06:56:20;;;;;;;27.65;13.45;;;14.80;99.90;;;;;;5012414;28;20095;-74
2022/06/07 06:58:46;;;;;;;21.45;13.90;;;14.90;99.90;;;;;;5009484;28;20136;-75
2022/06/07 07:01:15;;;;;;;21.33;13.25;;;14.90;99.90;;;;;;5005401;28;20524;-74
2022/06/07 07:03:42;;;;;;;20.48;12.82;;;14.90;99.90;;;;;;5009065;28;20033;-75
2022/06/07 07:06:10;;;;;;;21.73;12.70;;;15.00;99.90;;;;;;4994849;28;20029;-74
2022/06/07 07:08:38;;;;;;;25.08;13.82;;;15.10;99.90;;;;;;4999995;28;20330;-73
2022/06/07 07:11:12;;;;;;;18.10;12.80;;;15.30;99.90;;;;;;5011131;28;20473;-73
2022/06/07 07:13:38;;;;;;;19.17;13.00;;;15.30;99.90;;;;;;4991737;28;20038;-72
2022/06/07 07:16:07;;;;;;;18.23;12.43;;;15.50;99.90;;;;;;4995840;28;20404;-72
2022/06/07 07:18:33;;;;;;;19.27;11.10;;;15.80;99.90;;;;;;4999161;28;20051;-72
2022/06/07 07:21:06;;;;;;;16.08;10.98;;;15.80;99.90;;;;;;4998407;28;20729;-72
2022/06/07 07:23:33;;;;;;;16.15;11.35;;;15.70;99.90;;;;;;4995114;28;20120;-71
2022/06/07 07:26:07;;;;;;;18.48;11.90;;;15.80;99.90;;;;;;5004787;28;20042;-72
2022/06/07 07:28:34;;;;;;;16.25;10.95;;;15.80;99.90;;;;;;5010074;28;20246;-72
2022/06/07 07:31:07;;;;;;;19.15;11.35;;;15.60;99.90;;;;;;5010171;28;20473;-72
2022/06/07 07:33:34;;;;;;;16.70;11.13;;;15.60;99.90;;;;;;5004637;28;20117;-72
2022/06/07 07:36:05;;;;;;;14.88;10.90;;;15.70;99.90;;;;;;5011158;28;20178;-72
2022/06/07 07:38:31;;;;;;;15.32;10.30;;;15.80;99.90;;;;;;5019188;28;20065;-72
2022/06/07 07:40:56;;;;;;;13.68;9.32;;;15.90;99.90;;;;;;5012387;28;21004;-72
2022/06/07 07:43:22;;;;;;;10.18;8.27;;;16.00;99.90;;;;;;5011233;28;20048;-72
2022/06/07 07:45:52;;;;;;;14.32;8.90;;;16.00;99.90;;;;;;5012789;28;20080;-72
2022/06/07 07:48:18;;;;;;;12.52;10.10;;;16.20;99.90;;;;;;5009647;28;20048;-72
2022/06/07 07:50:44;;;;;;;14.82;9.40;;;16.20;99.90;;;;;;5017595;28;20272;-71
2022/06/07 07:53:10;;;;;;;14.18;9.52;;;16.30;99.90;;;;;;5018091;28;20041;-72
2022/06/07 07:55:42;;;;;;;12.88;8.90;;;16.50;99.90;;;;;;4993563;28;20062;-72
2022/06/07 07:58:09;;;;;;;9.75;8.65;;;16.50;99.90;;;;;;5023661;28;20492;-72
2022/06/07 08:00:34;;;;;;;10.60;8.52;;;16.70;99.90;;;;;;5008865;28;20167;-72
2022/06/07 08:03:00;;;;;;;10.73;7.75;;;16.70;99.90;;;;;;5030464;28;20516;-73
2022/06/07 08:05:26;;;;;;;11.13;8.32;;;16.60;99.90;;;;;;5013685;28;20044;-72
2022/06/07 08:07:52;;;;;;;8.10;5.72;;;16.60;99.90;;;;;;4321742;28;10000757;-73
2022/06/07 08:10:18;;;;;;;9.65;6.20;;;16.40;99.90;;;;;;5010793;28;20862;-72
2022/06/07 08:12:45;;;;;;;3.78;3.38;;;16.50;99.90;;;;;;4983128;28;20583;-73
2022/06/07 08:15:11;;;;;;;2.53;2.33;;;16.50;99.90;;;;;;5008044;28;20038;-72
2022/06/07 08:17:37;;;;;;;2.97;2.15;;;16.60;99.90;;;;;;4995452;28;20033;-72
2022/06/07 08:20:03;;;;;;;1.73;1.50;;;16.60;99.90;;;;;;5004860;28;20307;-73
2022/06/07 08:22:29;;;;;;;1.70;1.60;;;16.70;99.90;;;;;;5012504;28;20127;-74
2022/06/07 08:24:54;;;;;;;1.52;1.45;;;16.60;99.90;;;;;;4993540;28;20033;-73
2022/06/07 08:27:20;;;;;;;3.42;1.52;;;16.60;99.90;;;;;;5022096;28;20029;-73
2022/06/07 08:29:46;;;;;;;2.83;1.50;;;16.60;99.90;;;;;;5005257;28;20037;-73
2022/06/07 08:32:11;;;;;;;1.05;1.05;;;16.60;99.90;;;;;;5003824;28;20154;-73
2022/06/07 08:37:33;;;;;;;0.70;0.70;;;16.40;99.90;;;;;;5007725;28;20480;-73
2022/06/07 08:40:08;;;;;;;0.95;0.60;;;16.30;99.90;;;;;;5007125;28;20144;-70
2022/06/07 08:42:37;;;;;;;0.95;0.95;;;16.40;99.90;;;;;;5012241;28;20511;-72
2022/06/07 08:45:16;;;;;;;0.73;0.73;;;16.30;99.90;;;;;;5016260;28;20044;-73
2022/06/07 08:48:04;;;;;;;0.75;0.75;;;16.40;99.90;;;;;;5009396;28;20112;-73
2022/06/07 08:50:39;;;;;;;1.30;0.70;;;16.60;99.90;;;;;;5011478;28;20033;-73
2022/06/07 08:53:22;;;;;;;0.43;0.43;;;16.80;99.90;;;;;;5007094;28;20037;-74
2022/06/07 08:55:59;;;;;;;0.63;0.63;;;16.90;99.90;;;;;;5007986;28;20033;-74
2022/06/07 08:58:28;;;;;;;0.82;0.82;;;16.90;99.90;;;;;;5007024;28;20033;-74
2022/06/07 09:01:22;;;;;;;1.77;1.13;;;16.80;99.90;;;;;;5011306;28;20663;-74
2022/06/07 09:04:05;;;;;;;0.90;0.90;;;16.60;99.90;;;;;;4989913;28;20501;-73
2022/06/07 09:06:36;;;;;;;1.60;0.80;;;16.50;99.90;;;;;;5000801;28;20378;-71
2022/06/07 09:09:04;;;;;;;0.47;0.47;;;16.60;99.90;;;;;;5017966;28;20037;-70
2022/06/07 09:14:32;;;;;;;0.45;0.45;;;16.70;99.90;;;;;;5021509;28;20455;-72
2022/06/07 09:17:00;;;;;;;1.50;0.20;;;16.90;99.90;;;;;;5013609;28;20516;-71
2022/06/07 09:19:29;;;;;;;0.20;0.20;;;16.90;99.90;;;;;;5033816;28;20324;-72
2022/06/07 09:22:13;;;;;;;0.40;0.20;;;17.00;99.90;;;;;;5026928;28;20032;-71
2022/06/07 09:25:00;;;;;;;0.20;0.20;;;17.10;99.90;;;;;;5017773;28;20043;-71
2022/06/07 09:27:31;;;;;;;0.20;0.20;;;17.10;99.90;;;;;;5033632;28;20152;-71
2022/06/07 09:30:02;;;;;;;0.43;0.10;;;17.10;99.90;;;;;;5033697;28;20492;-71
2022/06/07 09:32:31;;;;;;;;;;;17.00;99.90;;;;;;5025948;28;20455;-71
2022/06/07 09:35:05;;;;;;;0.20;0.20;;;16.90;99.90;;;;;;5029956;28;19919;-70
2022/06/07 09:37:47;;;;;;;0.20;0.20;;;16.80;99.90;;;;;;5031321;28;20526;-71
2022/06/07 09:40:21;;;;;;;0.10;0.10;;;16.90;99.90;;;;;;5037796;28;20032;-71
2022/06/07 09:43:16;;;;;;;0.10;0.10;;;16.90;99.90;;;;;;5025856;28;20036;-72
2022/06/07 09:45:45;;;;;;;1.00;0.20;;;17.00;99.90;;;;;;4673474;28;10000395;-71
2022/06/07 09:48:45;;;;;;;0.47;0.28;;;16.80;99.90;;;;;;5026699;28;20037;-72
2022/06/07 09:51:19;;;;;;;0.45;0.20;;;17.00;99.90;;;;;;5013337;28;20064;-73
2022/06/07 09:54:04;;;;;;;0.20;0.20;;;17.20;99.90;;;;;;5015361;28;20561;-72
2022/06/07 09:56:47;;;;;;;1.17;0.20;;;17.50;99.90;;;;;;5028075;28;20032;-72
2022/06/07 09:59:34;;;;;;;0.28;0.10;;;17.60;99.90;;;;;;5034810;28;20041;-73
2022/06/07 10:02:17;;;;;;;0.77;0.10;;;17.70;99.90;;;;;;5023752;28;20094;-73
2022/06/07 10:04:55;;;;;;;0.20;0.20;;;18.00;99.90;;;;;;5020100;28;20047;-73
2022/06/07 10:07:37;;;;;;;1.45;0.10;;;18.10;99.90;;;;;;5031665;28;20140;-73
2022/06/07 10:10:09;;;;;;;1.02;0.10;;;18.20;99.90;;;;;;5012494;28;20153;-72
2022/06/07 10:13:05;;;;;;;0.20;0.10;;;18.10;99.90;;;;;;5010450;28;20033;-73
2022/06/07 10:15:41;;;;;;;0.20;0.10;;;18.20;99.90;;;;;;5023840;28;20033;-74
2022/06/07 10:18:26;;;;;;;1.10;0.30;;;18.20;99.90;;;;;;5016067;28;20029;-73
2022/06/07 10:21:13;;;;;;;0.50;0.10;;;18.30;99.90;;;;;;4668146;28;10000537;-73
2022/06/07 10:23:59;;;;;;;0.57;0.15;;;18.10;99.90;;;;;;5017666;28;20124;-73
2022/06/07 10:26:49;;;;;;;0.30;0.30;;;18.00;99.90;;;;;;5020201;28;20108;-73
2022/06/07 10:29:33;;;;;;;0.28;0.28;;;17.80;99.90;;;;;;5006031;28;20073;-73
2022/06/07 10:32:01;;;;;;;1.02;0.20;;;17.80;99.90;;;;;;5021981;28;20472;-74
2022/06/07 10:34:46;;;;;;;0.38;0.20;;;18.00;99.90;;;;;;5023801;28;20313;-73
2022/06/07 10:37:29;;;;;;;0.10;0.10;;;18.40;99.90;;;;;;5018214;28;20373;-73
2022/06/07 10:40:34;;;;;;;0.10;0.10;;;18.90;99.90;;;;;;5028254;28;20779;-74
2022/06/07 10:43:01;;;;;;;0.85;0.00;;;19.40;99.90;;;;;;4979979;28;20026;-73
2022/06/07 10:45:30;;;;;;;0.13;0.03;;;19.40;99.90;;;;;;5007702;28;20037;-72
2022/06/07 10:48:07;;;;;;;1.08;0.10;;;19.00;99.90;;;;;;5007161;28;20034;-72
2022/06/07 10:50:42;;;;;;;0.75;0.00;;;19.10;99.90;;;;;;5024899;28;20226;-72
2022/06/07 10:53:33;;;;;;;0.13;0.03;;;18.90;99.90;;;;;;5008696;28;20456;-72
2022/06/07 10:56:14;;;;;;;0.10;0.10;;;18.80;99.90;;;;;;5017617;28;20117;-72
2022/06/07 10:58:43;;;;;;;0.20;0.10;;;18.60;99.90;;;;;;5004333;28;20049;-72
2022/06/07 11:01:24;;;;;;;1.17;0.20;;;18.60;99.90;;;;;;5009485;28;20053;-71
2022/06/07 11:04:01;;;;;;;;;;;18.50;99.90;;;;;;5014966;28;20599;-70
2022/06/07 11:09:49;;;;;;;0.85;0.30;;;18.30;99.90;;;;;;5010119;28;20037;-71
2022/06/07 11:12:19;;;;;;;0.50;0.50;;;18.40;99.90;;;;;;5021051;28;20025;-72
2022/06/07 11:14:51;;;;;;;0.63;0.47;;;18.30;99.90;;;;;;5018678;28;20253;-72
2022/06/07 11:17:42;;;;;;;;;;;18.20;99.90;;;;;;5012594;28;20382;-71
2022/06/07 11:20:28;;;;;;;1.15;0.30;;;18.10;99.90;;;;;;5023204;28;20416;-70
2022/06/07 11:23:08;;;;;;;1.23;0.40;;;18.00;99.90;;;;;;5021346;28;20041;-69
2022/06/07 11:25:43;;;;;;;0.65;0.32;;;17.90;99.90;;;;;;4994669;28;20078;-70
2022/06/07 11:28:09;;;;;;;0.82;0.28;;;17.80;99.90;;;;;;5011453;28;20115;-71
2022/06/07 11:30:36;;;;;;;2.35;1.95;;;18.10;99.90;;;;;;5003527;28;20037;-72
2022/06/07 11:33:06;;;;;;;0.30;0.10;;;18.10;99.90;;;;;;4995211;28;20356;-72
2022/06/07 11:35:52;;;;;;;0.10;0.10;;;18.10;99.90;;;;;;4998474;28;20045;-71
2022/06/07 11:38:17;;;;;;;0.20;0.10;;;18.30;99.90;;;;;;4987236;28;20064;-71
2022/06/07 11:40:45;;;;;;;0.22;0.10;;;18.60;99.90;;;;;;4989087;28;20185;-71
2022/06/07 11:43:48;;;;;;;0.25;0.20;;;18.70;99.90;;;;;;4980370;28;20297;-72
2022/06/07 11:46:33;;;;;;;1.17;0.43;;;18.80;99.90;;;;;;5007698;28;20030;-71
2022/06/07 11:49:18;;;;;;;1.27;0.20;;;18.60;99.90;;;;;;5011804;28;20049;-71
2022/06/07 11:52:19;;;;;;;0.68;0.32;;;18.50;99.90;;;;;;5007408;28;20025;-71
2022/06/07 11:54:45;;;;;;;2.72;1.10;;;18.30;99.90;;;;;;4991737;28;20037;-71
2022/06/07 11:57:26;;;;;;;1.70;0.80;;;18.20;99.90;;;;;;5013376;28;20625;-71
2022/06/07 11:59:55;;;;;;;2.97;1.05;;;17.90;99.90;;;;;;5014043;28;20045;-71
2022/06/07 12:02:31;;;;;;;4.28;1.40;;;17.60;99.90;;;;;;5005404;28;20064;-71
2022/06/07 12:04:59;;;;;;;4.63;1.25;;;17.40;99.90;;;;;;5009943;28;20030;-71
2022/06/07 12:07:32;;;;;;;2.80;1.63;;;17.30;99.90;;;;;;5000960;28;20030;-71
2022/06/07 12:10:12;;;;;;;3.63;1.48;;;17.30;99.90;;;;;;4994726;28;20029;-71
2022/06/07 12:12:38;;;;;;;3.35;1.60;;;17.10;99.90;;;;;;5011468;28;20040;-71
2022/06/07 12:15:46;;;;;;;3.03;1.73;;;17.10;99.90;;;;;;5013427;28;20495;-71
2022/06/07 12:18:21;;;;;;;5.65;2.22;;;17.00;99.90;;;;;;4972434;28;20125;-70
2022/06/07 12:21:14;;;;;;;6.88;1.80;;;17.00;99.90;;;;;;4666188;28;10000367;-71
2022/06/07 12:23:46;;;;;;;3.17;1.63;;;17.00;99.90;;;;;;5014450;28;20577;-71
2022/06/07 12:26:34;;;;;;;3.92;1.35;;;17.10;99.90;;;;;;4993970;28;20052;-70
2022/06/07 12:29:13;;;;;;;7.85;1.77;;;17.20;99.90;;;;;;5013882;28;20488;-71
2022/06/07 12:31:47;;;;;;;3.53;1.88;;;17.10;99.90;;;;;;5006507;28;20029;-70
2022/06/07 12:34:34;;;;;;;4.70;1.73;;;17.20;99.90;;;;;;5003155;28;20037;-73
2022/06/07 12:37:24;;;;;;;3.28;1.20;;;17.40;99.90;;;;;;5006598;28;20536;-71
2022/06/07 12:39:59;;;;;;;3.10;1.15;;;17.90;99.90;;;;;;5016239;28;20029;-73
2022/06/07 12:42:32;;;;;;;1.08;0.50;;;18.10;99.90;;;;;;5007869;28;20038;-73
2022/06/07 12:45:01;;;;;;;2.88;0.50;;;18.20;99.90;;;;;;5000745;28;20055;-72
2022/06/07 12:47:34;;;;;;;2.20;0.77;;;18.10;99.90;;;;;;5004658;28;20037;-73
2022/06/07 12:50:01;;;;;;;0.88;0.47;;;18.10;99.90;;;;;;5026465;28;20152;-72
2022/06/07 12:52:29;;;;;;;3.38;0.90;;;18.40;99.90;;;;;;5032227;28;20037;-73
2022/06/07 12:55:12;;;;;;;2.92;0.98;;;19.10;99.90;;;;;;4995237;28;20043;-71
2022/06/07 12:57:46;;;;;;;2.50;0.93;;;19.90;99.90;;;;;;4996530;28;20029;-71
2022/06/07 13:00:18;;;;;;;2.03;0.80;;;20.40;99.90;;;;;;5014621;28;20029;-72
2022/06/07 13:02:51;;;;;;;3.15;1.17;;;20.00;99.90;;;;;;5018642;28;20400;-71
2022/06/07 13:05:23;;;;;;;3.75;0.80;;;20.70;99.90;;;;;;5016527;28;20444;-71
2022/06/07 13:07:52;;;;;;;3.17;1.00;;;21.50;99.90;;;;;;5014521;28;20072;-72
2022/06/07 13:10:31;;;;;;;5.80;0.65;;;21.50;99.90;;;;;;5017461;28;20503;-72
2022/06/07 13:13:07;;;;;;;2.00;1.10;;;21.10;99.90;;;;;;5014732;28;20029;-72
2022/06/07 13:15:37;;;;;;;6.68;1.13;;;21.10;99.90;;;;;;5011850;28;20467;-72
2022/06/07 13:18:15;;;;;;;6.65;1.10;;;21.20;99.90;;;;;;5023258;28;20029;-72